sensor_id;sensor_type;location;lat;lon;timestamp;P1;durP1;ratioP1;P2;durP2;ratioP2
76167;SDS011;64927;48.214;16.378;2023-09-30T00:01:17;4.07;;;2.22;;
76167;SDS011;64927;48.214;16.378;2023-09-30T00:03:47;6.28;;;2.58;;
76167;SDS011;64927;48.214;16.378;2023-09-30T00:06:13;5.47;;;2.75;;
76167;SDS011;64927;48.214;16.378;2023-09-30T00:08:38;7.72;;;3.15;;
76167;SDS011;64927;48.214;16.378;2023-09-30T00:11:07;6.93;;;2.78;;
76167;SDS011;64927;48.214;16.378;2023-09-30T00:13:33;9.70;;;3.55;;
76167;SDS011;64927;48.214;16.378;2023-09-30T00:15:59;6.05;;;3.78;;
76167;SDS011;64927;48.214;16.378;2023-09-30T00:18:24;7.38;;;3.10;;
76167;SDS011;64927;48.214;16.378;2023-09-30T00:20:50;4.60;;;3.03;;
76167;SDS011;64927;48.214;16.378;2023-09-30T00:23:16;9.65;;;3.47;;
76167;SDS011;64927;48.214;16.378;2023-09-30T00:25:41;6.60;;;2.95;;
76167;SDS011;64927;48.214;16.378;2023-09-30T00:28:07;5.00;;;2.90;;
76167;SDS011;64927;48.214;16.378;2023-09-30T00:30:33;8.02;;;2.90;;
76167;SDS011;64927;48.214;16.378;2023-09-30T00:32:59;5.28;;;3.08;;
76167;SDS011;64927;48.214;16.378;2023-09-30T00:35:27;4.72;;;2.80;;
76167;SDS011;64927;48.214;16.378;2023-09-30T00:37:53;5.30;;;3.08;;
76167;SDS011;64927;48.214;16.378;2023-09-30T00:40:18;4.90;;;2.70;;
76167;SDS011;64927;48.214;16.378;2023-09-30T00:42:44;5.32;;;3.10;;
76167;SDS011;64927;48.214;16.378;2023-09-30T00:45:10;6.10;;;3.10;;
76167;SDS011;64927;48.214;16.378;2023-09-30T00:47:37;6.00;;;3.10;;
76167;SDS011;64927;48.214;16.378;2023-09-30T00:50:03;4.18;;;2.67;;
76167;SDS011;64927;48.214;16.378;2023-09-30T00:52:32;5.00;;;2.90;;
76167;SDS011;64927;48.214;16.378;2023-09-30T00:55:00;6.68;;;3.10;;
76167;SDS011;64927;48.214;16.378;2023-09-30T00:57:27;5.80;;;3.10;;
76167;SDS011;64927;48.214;16.378;2023-09-30T00:59:55;6.47;;;3.47;;
76167;SDS011;64927;48.214;16.378;2023-09-30T01:02:22;3.53;;;2.55;;
76167;SDS011;64927;48.214;16.378;2023-09-30T01:04:48;6.72;;;3.35;;
76167;SDS011;64927;48.214;16.378;2023-09-30T01:07:14;5.10;;;2.97;;
76167;SDS011;64927;48.214;16.378;2023-09-30T01:09:40;6.30;;;3.45;;
76167;SDS011;64927;48.214;16.378;2023-09-30T01:12:05;5.35;;;2.35;;
76167;SDS011;64927;48.214;16.378;2023-09-30T01:14:33;5.40;;;3.20;;
76167;SDS011;64927;48.214;16.378;2023-09-30T01:17:03;4.90;;;3.15;;
76167;SDS011;64927;48.214;16.378;2023-09-30T01:19:36;5.68;;;3.05;;
76167;SDS011;64927;48.214;16.378;2023-09-30T01:22:02;5.63;;;2.67;;
76167;SDS011;64927;48.214;16.378;2023-09-30T01:24:30;6.75;;;2.63;;
76167;SDS011;64927;48.214;16.378;2023-09-30T01:27:03;5.43;;;2.78;;
76167;SDS011;64927;48.214;16.378;2023-09-30T01:29:28;5.13;;;3.78;;
76167;SDS011;64927;48.214;16.378;2023-09-30T01:31:54;9.02;;;3.55;;
76167;SDS011;64927;48.214;16.378;2023-09-30T01:34:20;6.05;;;4.22;;
76167;SDS011;64927;48.214;16.378;2023-09-30T01:36:48;5.85;;;3.42;;
76167;SDS011;64927;48.214;16.378;2023-09-30T01:39:14;6.35;;;3.10;;
76167;SDS011;64927;48.214;16.378;2023-09-30T01:41:40;4.55;;;2.55;;
76167;SDS011;64927;48.214;16.378;2023-09-30T01:44:06;4.60;;;2.70;;
76167;SDS011;64927;48.214;16.378;2023-09-30T01:46:34;4.35;;;2.78;;
76167;SDS011;64927;48.214;16.378;2023-09-30T01:49:04;7.03;;;3.53;;
76167;SDS011;64927;48.214;16.378;2023-09-30T01:51:31;5.05;;;2.83;;
76167;SDS011;64927;48.214;16.378;2023-09-30T01:53:57;6.55;;;3.35;;
76167;SDS011;64927;48.214;16.378;2023-09-30T01:56:23;5.28;;;3.03;;
76167;SDS011;64927;48.214;16.378;2023-09-30T01:58:49;6.40;;;2.83;;
76167;SDS011;64927;48.214;16.378;2023-09-30T02:01:14;6.28;;;3.00;;
76167;SDS011;64927;48.214;16.378;2023-09-30T02:03:40;4.90;;;2.83;;
76167;SDS011;64927;48.214;16.378;2023-09-30T02:06:06;5.60;;;2.60;;
76167;SDS011;64927;48.214;16.378;2023-09-30T02:08:35;5.90;;;2.83;;
76167;SDS011;64927;48.214;16.378;2023-09-30T02:11:03;5.35;;;3.35;;
76167;SDS011;64927;48.214;16.378;2023-09-30T02:13:35;4.35;;;2.60;;
76167;SDS011;64927;48.214;16.378;2023-09-30T02:16:01;4.38;;;3.15;;
76167;SDS011;64927;48.214;16.378;2023-09-30T02:18:26;4.47;;;2.50;;
76167;SDS011;64927;48.214;16.378;2023-09-30T02:20:52;7.72;;;3.38;;
76167;SDS011;64927;48.214;16.378;2023-09-30T02:23:20;5.57;;;3.40;;
76167;SDS011;64927;48.214;16.378;2023-09-30T02:25:49;5.05;;;3.20;;
76167;SDS011;64927;48.214;16.378;2023-09-30T02:28:17;4.88;;;2.97;;
76167;SDS011;64927;48.214;16.378;2023-09-30T02:30:43;5.78;;;3.22;;
76167;SDS011;64927;48.214;16.378;2023-09-30T02:33:08;4.95;;;3.20;;
76167;SDS011;64927;48.214;16.378;2023-09-30T02:35:34;5.85;;;3.55;;
76167;SDS011;64927;48.214;16.378;2023-09-30T02:38:00;8.77;;;4.43;;
76167;SDS011;64927;48.214;16.378;2023-09-30T02:40:25;6.10;;;3.60;;
76167;SDS011;64927;48.214;16.378;2023-09-30T02:42:51;6.72;;;3.08;;
76167;SDS011;64927;48.214;16.378;2023-09-30T02:45:17;5.35;;;2.72;;
76167;SDS011;64927;48.214;16.378;2023-09-30T02:47:45;6.45;;;3.55;;
76167;SDS011;64927;48.214;16.378;2023-09-30T02:50:12;5.03;;;3.10;;
76167;SDS011;64927;48.214;16.378;2023-09-30T02:52:38;3.25;;;2.30;;
76167;SDS011;64927;48.214;16.378;2023-09-30T02:55:10;2.38;;;1.80;;
76167;SDS011;64927;48.214;16.378;2023-09-30T02:57:36;3.22;;;2.13;;
76167;SDS011;64927;48.214;16.378;2023-09-30T03:00:06;2.72;;;1.88;;
76167;SDS011;64927;48.214;16.378;2023-09-30T03:02:48;4.28;;;2.20;;
76167;SDS011;64927;48.214;16.378;2023-09-30T03:05:17;2.78;;;1.60;;
76167;SDS011;64927;48.214;16.378;2023-09-30T03:07:43;5.55;;;2.15;;
76167;SDS011;64927;48.214;16.378;2023-09-30T03:10:11;3.53;;;2.08;;
76167;SDS011;64927;48.214;16.378;2023-09-30T03:12:39;3.22;;;1.58;;
76167;SDS011;64927;48.214;16.378;2023-09-30T03:15:05;2.67;;;1.67;;
76167;SDS011;64927;48.214;16.378;2023-09-30T03:17:31;2.35;;;1.73;;
76167;SDS011;64927;48.214;16.378;2023-09-30T03:19:57;2.50;;;1.73;;
76167;SDS011;64927;48.214;16.378;2023-09-30T03:22:28;3.22;;;1.30;;
76167;SDS011;64927;48.214;16.378;2023-09-30T03:24:55;2.78;;;1.23;;
76167;SDS011;64927;48.214;16.378;2023-09-30T03:27:22;2.42;;;1.42;;
76167;SDS011;64927;48.214;16.378;2023-09-30T03:29:48;2.97;;;1.83;;
76167;SDS011;64927;48.214;16.378;2023-09-30T03:32:14;2.08;;;1.67;;
76167;SDS011;64927;48.214;16.378;2023-09-30T03:34:42;2.95;;;1.38;;
76167;SDS011;64927;48.214;16.378;2023-09-30T03:37:11;2.83;;;1.55;;
76167;SDS011;64927;48.214;16.378;2023-09-30T03:39:39;4.43;;;1.75;;
76167;SDS011;64927;48.214;16.378;2023-09-30T03:42:06;4.03;;;1.90;;
76167;SDS011;64927;48.214;16.378;2023-09-30T03:44:32;3.30;;;2.03;;
76167;SDS011;64927;48.214;16.378;2023-09-30T03:46:57;2.03;;;1.58;;
76167;SDS011;64927;48.214;16.378;2023-09-30T03:49:24;3.15;;;1.92;;
76167;SDS011;64927;48.214;16.378;2023-09-30T03:51:49;2.92;;;1.58;;
76167;SDS011;64927;48.214;16.378;2023-09-30T03:54:15;2.00;;;1.63;;
76167;SDS011;64927;48.214;16.378;2023-09-30T03:56:42;4.93;;;1.60;;
76167;SDS011;64927;48.214;16.378;2023-09-30T03:59:09;2.90;;;1.80;;
76167;SDS011;64927;48.214;16.378;2023-09-30T04:01:35;3.28;;;2.20;;
76167;SDS011;64927;48.214;16.378;2023-09-30T04:04:05;3.03;;;1.98;;
76167;SDS011;64927;48.214;16.378;2023-09-30T04:06:35;3.83;;;2.28;;
76167;SDS011;64927;48.214;16.378;2023-09-30T04:09:03;3.28;;;1.92;;
76167;SDS011;64927;48.214;16.378;2023-09-30T04:11:34;4.78;;;2.45;;
76167;SDS011;64927;48.214;16.378;2023-09-30T04:14:01;4.35;;;2.20;;
76167;SDS011;64927;48.214;16.378;2023-09-30T04:16:27;4.63;;;2.85;;
76167;SDS011;64927;48.214;16.378;2023-09-30T04:18:54;4.78;;;2.10;;
76167;SDS011;64927;48.214;16.378;2023-09-30T04:21:22;2.80;;;2.15;;
76167;SDS011;64927;48.214;16.378;2023-09-30T04:23:47;4.72;;;2.55;;
76167;SDS011;64927;48.214;16.378;2023-09-30T04:26:14;6.50;;;2.88;;
76167;SDS011;64927;48.214;16.378;2023-09-30T04:28:40;4.93;;;2.33;;
76167;SDS011;64927;48.214;16.378;2023-09-30T04:31:05;4.63;;;2.22;;
76167;SDS011;64927;48.214;16.378;2023-09-30T04:33:32;7.35;;;2.65;;
76167;SDS011;64927;48.214;16.378;2023-09-30T04:36:01;6.07;;;3.97;;
76167;SDS011;64927;48.214;16.378;2023-09-30T04:38:30;5.05;;;2.08;;
76167;SDS011;64927;48.214;16.378;2023-09-30T04:40:56;5.80;;;2.97;;
76167;SDS011;64927;48.214;16.378;2023-09-30T04:43:25;9.07;;;3.35;;
76167;SDS011;64927;48.214;16.378;2023-09-30T04:45:54;7.53;;;2.80;;
76167;SDS011;64927;48.214;16.378;2023-09-30T04:48:22;5.28;;;2.28;;
76167;SDS011;64927;48.214;16.378;2023-09-30T04:50:48;5.53;;;3.05;;
76167;SDS011;64927;48.214;16.378;2023-09-30T04:53:14;5.75;;;2.75;;
76167;SDS011;64927;48.214;16.378;2023-09-30T04:55:42;3.30;;;2.20;;
76167;SDS011;64927;48.214;16.378;2023-09-30T04:58:10;7.63;;;2.63;;
76167;SDS011;64927;48.214;16.378;2023-09-30T05:00:36;6.28;;;3.00;;
76167;SDS011;64927;48.214;16.378;2023-09-30T05:03:02;5.32;;;2.90;;
76167;SDS011;64927;48.214;16.378;2023-09-30T05:05:30;6.70;;;3.35;;
76167;SDS011;64927;48.214;16.378;2023-09-30T05:07:58;6.32;;;2.88;;
76167;SDS011;64927;48.214;16.378;2023-09-30T05:10:24;6.82;;;2.58;;
76167;SDS011;64927;48.214;16.378;2023-09-30T05:12:50;7.55;;;3.30;;
76167;SDS011;64927;48.214;16.378;2023-09-30T05:15:19;7.18;;;3.00;;
76167;SDS011;64927;48.214;16.378;2023-09-30T05:17:47;8.65;;;3.42;;
76167;SDS011;64927;48.214;16.378;2023-09-30T05:20:13;9.98;;;3.75;;
76167;SDS011;64927;48.214;16.378;2023-09-30T05:22:42;11.77;;;3.70;;
76167;SDS011;64927;48.214;16.378;2023-09-30T05:25:13;8.15;;;3.50;;
76167;SDS011;64927;48.214;16.378;2023-09-30T05:27:43;10.00;;;2.88;;
76167;SDS011;64927;48.214;16.378;2023-09-30T05:30:10;10.50;;;3.83;;
76167;SDS011;64927;48.214;16.378;2023-09-30T05:32:40;8.75;;;3.80;;
76167;SDS011;64927;48.214;16.378;2023-09-30T05:35:06;10.15;;;3.05;;
76167;SDS011;64927;48.214;16.378;2023-09-30T05:37:38;9.00;;;3.33;;
76167;SDS011;64927;48.214;16.378;2023-09-30T05:40:07;12.20;;;4.07;;
76167;SDS011;64927;48.214;16.378;2023-09-30T05:42:46;9.15;;;3.40;;
76167;SDS011;64927;48.214;16.378;2023-09-30T05:45:15;12.70;;;3.15;;
76167;SDS011;64927;48.214;16.378;2023-09-30T05:47:41;9.65;;;3.75;;
76167;SDS011;64927;48.214;16.378;2023-09-30T05:50:06;6.55;;;2.70;;
76167;SDS011;64927;48.214;16.378;2023-09-30T05:52:34;8.65;;;3.15;;
76167;SDS011;64927;48.214;16.378;2023-09-30T05:55:00;8.88;;;3.47;;
76167;SDS011;64927;48.214;16.378;2023-09-30T05:57:27;10.52;;;3.78;;
76167;SDS011;64927;48.214;16.378;2023-09-30T05:59:53;6.47;;;2.88;;
76167;SDS011;64927;48.214;16.378;2023-09-30T06:02:21;6.18;;;3.30;;
76167;SDS011;64927;48.214;16.378;2023-09-30T06:04:47;10.57;;;3.58;;
76167;SDS011;64927;48.214;16.378;2023-09-30T06:07:12;8.15;;;2.80;;
76167;SDS011;64927;48.214;16.378;2023-09-30T06:09:38;9.25;;;3.78;;
76167;SDS011;64927;48.214;16.378;2023-09-30T06:12:04;10.40;;;3.70;;
76167;SDS011;64927;48.214;16.378;2023-09-30T06:14:32;7.88;;;3.33;;
76167;SDS011;64927;48.214;16.378;2023-09-30T06:16:59;13.48;;;3.30;;
76167;SDS011;64927;48.214;16.378;2023-09-30T06:19:27;8.90;;;3.30;;
76167;SDS011;64927;48.214;16.378;2023-09-30T06:21:55;7.65;;;3.58;;
76167;SDS011;64927;48.214;16.378;2023-09-30T06:24:21;8.80;;;3.60;;
76167;SDS011;64927;48.214;16.378;2023-09-30T06:26:47;9.68;;;3.58;;
76167;SDS011;64927;48.214;16.378;2023-09-30T06:29:18;6.75;;;3.00;;
76167;SDS011;64927;48.214;16.378;2023-09-30T06:31:44;8.43;;;3.78;;
76167;SDS011;64927;48.214;16.378;2023-09-30T06:34:10;6.25;;;3.13;;
76167;SDS011;64927;48.214;16.378;2023-09-30T06:36:36;9.65;;;3.53;;
76167;SDS011;64927;48.214;16.378;2023-09-30T06:39:02;9.98;;;3.38;;
76167;SDS011;64927;48.214;16.378;2023-09-30T06:41:30;7.05;;;3.40;;
76167;SDS011;64927;48.214;16.378;2023-09-30T06:43:56;10.40;;;3.00;;
76167;SDS011;64927;48.214;16.378;2023-09-30T06:46:22;9.32;;;3.50;;
76167;SDS011;64927;48.214;16.378;2023-09-30T06:48:49;6.93;;;3.60;;
76167;SDS011;64927;48.214;16.378;2023-09-30T06:51:17;9.85;;;3.28;;
76167;SDS011;64927;48.214;16.378;2023-09-30T06:53:43;7.20;;;3.28;;
76167;SDS011;64927;48.214;16.378;2023-09-30T06:56:10;8.93;;;3.35;;
76167;SDS011;64927;48.214;16.378;2023-09-30T06:58:38;9.82;;;3.88;;
76167;SDS011;64927;48.214;16.378;2023-09-30T07:01:04;9.93;;;3.20;;
76167;SDS011;64927;48.214;16.378;2023-09-30T07:03:30;8.88;;;3.38;;
76167;SDS011;64927;48.214;16.378;2023-09-30T07:05:57;10.00;;;4.25;;
76167;SDS011;64927;48.214;16.378;2023-09-30T07:08:25;14.40;;;3.75;;
76167;SDS011;64927;48.214;16.378;2023-09-30T07:10:53;12.52;;;3.50;;
76167;SDS011;64927;48.214;16.378;2023-09-30T07:13:21;9.73;;;3.63;;
76167;SDS011;64927;48.214;16.378;2023-09-30T07:15:47;10.70;;;3.42;;
76167;SDS011;64927;48.214;16.378;2023-09-30T07:18:13;9.35;;;3.67;;
76167;SDS011;64927;48.214;16.378;2023-09-30T07:20:38;9.48;;;3.25;;
76167;SDS011;64927;48.214;16.378;2023-09-30T07:23:04;7.20;;;3.17;;
76167;SDS011;64927;48.214;16.378;2023-09-30T07:25:34;9.93;;;3.20;;
76167;SDS011;64927;48.214;16.378;2023-09-30T07:28:00;9.15;;;3.33;;
76167;SDS011;64927;48.214;16.378;2023-09-30T07:30:28;11.55;;;3.60;;
76167;SDS011;64927;48.214;16.378;2023-09-30T07:32:54;9.77;;;3.38;;
76167;SDS011;64927;48.214;16.378;2023-09-30T07:35:20;8.65;;;3.30;;
76167;SDS011;64927;48.214;16.378;2023-09-30T07:37:45;9.32;;;3.03;;
76167;SDS011;64927;48.214;16.378;2023-09-30T07:40:11;7.25;;;3.00;;
76167;SDS011;64927;48.214;16.378;2023-09-30T07:42:37;4.50;;;2.53;;
76167;SDS011;64927;48.214;16.378;2023-09-30T07:45:03;9.02;;;3.13;;
76167;SDS011;64927;48.214;16.378;2023-09-30T07:47:29;10.52;;;4.03;;
76167;SDS011;64927;48.214;16.378;2023-09-30T07:49:56;9.13;;;3.08;;
76167;SDS011;64927;48.214;16.378;2023-09-30T07:52:25;9.40;;;3.55;;
76167;SDS011;64927;48.214;16.378;2023-09-30T07:54:51;10.65;;;4.03;;
76167;SDS011;64927;48.214;16.378;2023-09-30T07:57:16;9.88;;;3.35;;
76167;SDS011;64927;48.214;16.378;2023-09-30T07:59:42;7.80;;;3.28;;
76167;SDS011;64927;48.214;16.378;2023-09-30T08:02:07;7.95;;;3.13;;
76167;SDS011;64927;48.214;16.378;2023-09-30T08:04:33;11.98;;;3.53;;
76167;SDS011;64927;48.214;16.378;2023-09-30T08:06:59;8.30;;;3.13;;
76167;SDS011;64927;48.214;16.378;2023-09-30T08:09:27;7.72;;;4.05;;
76167;SDS011;64927;48.214;16.378;2023-09-30T08:11:53;6.85;;;2.78;;
76167;SDS011;64927;48.214;16.378;2023-09-30T08:14:22;8.95;;;2.97;;
76167;SDS011;64927;48.214;16.378;2023-09-30T08:16:50;13.27;;;3.15;;
76167;SDS011;64927;48.214;16.378;2023-09-30T08:19:16;9.43;;;3.35;;
76167;SDS011;64927;48.214;16.378;2023-09-30T08:21:44;6.78;;;3.35;;
76167;SDS011;64927;48.214;16.378;2023-09-30T08:24:11;9.30;;;3.05;;
76167;SDS011;64927;48.214;16.378;2023-09-30T08:26:37;7.95;;;3.15;;
76167;SDS011;64927;48.214;16.378;2023-09-30T08:29:03;7.68;;;3.10;;
76167;SDS011;64927;48.214;16.378;2023-09-30T08:31:28;8.52;;;3.15;;
76167;SDS011;64927;48.214;16.378;2023-09-30T08:33:54;8.23;;;2.70;;
76167;SDS011;64927;48.214;16.378;2023-09-30T08:36:20;9.80;;;3.97;;
76167;SDS011;64927;48.214;16.378;2023-09-30T08:38:46;8.77;;;3.13;;
76167;SDS011;64927;48.214;16.378;2023-09-30T08:41:14;7.65;;;2.58;;
76167;SDS011;64927;48.214;16.378;2023-09-30T08:43:51;7.88;;;3.47;;
76167;SDS011;64927;48.214;16.378;2023-09-30T08:46:20;8.35;;;3.13;;
76167;SDS011;64927;48.214;16.378;2023-09-30T08:48:49;9.13;;;3.30;;
76167;SDS011;64927;48.214;16.378;2023-09-30T08:51:15;8.20;;;3.35;;
76167;SDS011;64927;48.214;16.378;2023-09-30T08:53:40;6.03;;;2.80;;
76167;SDS011;64927;48.214;16.378;2023-09-30T08:56:07;6.70;;;2.85;;
76167;SDS011;64927;48.214;16.378;2023-09-30T08:58:35;8.55;;;2.67;;
76167;SDS011;64927;48.214;16.378;2023-09-30T09:01:02;7.63;;;3.08;;
76167;SDS011;64927;48.214;16.378;2023-09-30T09:03:28;9.98;;;4.03;;
76167;SDS011;64927;48.214;16.378;2023-09-30T09:05:57;11.07;;;3.35;;
76167;SDS011;64927;48.214;16.378;2023-09-30T09:08:25;6.68;;;2.58;;
76167;SDS011;64927;48.214;16.378;2023-09-30T09:11:00;10.77;;;3.03;;
76167;SDS011;64927;48.214;16.378;2023-09-30T09:13:28;6.50;;;2.85;;
76167;SDS011;64927;48.214;16.378;2023-09-30T09:16:07;8.40;;;3.35;;
76167;SDS011;64927;48.214;16.378;2023-09-30T09:18:34;7.50;;;2.75;;
76167;SDS011;64927;48.214;16.378;2023-09-30T09:21:09;11.90;;;3.08;;
76167;SDS011;64927;48.214;16.378;2023-09-30T09:23:46;7.32;;;2.30;;
76167;SDS011;64927;48.214;16.378;2023-09-30T09:26:22;11.00;;;2.80;;
76167;SDS011;64927;48.214;16.378;2023-09-30T09:28:58;7.03;;;2.60;;
76167;SDS011;64927;48.214;16.378;2023-09-30T09:31:29;5.00;;;2.47;;
76167;SDS011;64927;48.214;16.378;2023-09-30T09:33:57;8.15;;;2.97;;
76167;SDS011;64927;48.214;16.378;2023-09-30T09:36:38;5.95;;;2.30;;
76167;SDS011;64927;48.214;16.378;2023-09-30T09:39:08;4.97;;;2.28;;
76167;SDS011;64927;48.214;16.378;2023-09-30T09:44:19;7.80;;;2.97;;
76167;SDS011;64927;48.214;16.378;2023-09-30T09:46:50;9.55;;;3.03;;
76167;SDS011;64927;48.214;16.378;2023-09-30T09:49:19;7.50;;;2.40;;
76167;SDS011;64927;48.214;16.378;2023-09-30T09:51:46;5.65;;;1.98;;
76167;SDS011;64927;48.214;16.378;2023-09-30T09:54:17;9.85;;;3.10;;
76167;SDS011;64927;48.214;16.378;2023-09-30T09:56:44;7.13;;;2.70;;
76167;SDS011;64927;48.214;16.378;2023-09-30T09:59:13;8.15;;;2.60;;
76167;SDS011;64927;48.214;16.378;2023-09-30T10:01:40;7.63;;;2.95;;
76167;SDS011;64927;48.214;16.378;2023-09-30T10:04:11;6.03;;;2.45;;
76167;SDS011;64927;48.214;16.378;2023-09-30T10:06:38;6.95;;;3.13;;
76167;SDS011;64927;48.214;16.378;2023-09-30T10:09:10;6.03;;;2.20;;
76167;SDS011;64927;48.214;16.378;2023-09-30T10:11:40;7.47;;;2.92;;
76167;SDS011;64927;48.214;16.378;2023-09-30T10:14:08;8.82;;;2.60;;
76167;SDS011;64927;48.214;16.378;2023-09-30T10:16:54;5.82;;;2.05;;
76167;SDS011;64927;48.214;16.378;2023-09-30T10:19:20;7.68;;;2.80;;
76167;SDS011;64927;48.214;16.378;2023-09-30T10:24:43;5.72;;;2.15;;
76167;SDS011;64927;48.214;16.378;2023-09-30T10:29:47;6.72;;;3.00;;
76167;SDS011;64927;48.214;16.378;2023-09-30T10:32:18;6.70;;;2.90;;
76167;SDS011;64927;48.214;16.378;2023-09-30T10:34:50;7.90;;;3.03;;
76167;SDS011;64927;48.214;16.378;2023-09-30T10:37:23;8.45;;;2.85;;
76167;SDS011;64927;48.214;16.378;2023-09-30T10:50:55;6.05;;;3.08;;
76167;SDS011;64927;48.214;16.378;2023-09-30T10:53:22;5.90;;;2.72;;
76167;SDS011;64927;48.214;16.378;2023-09-30T10:55:54;8.63;;;2.50;;
76167;SDS011;64927;48.214;16.378;2023-09-30T11:01:13;4.30;;;2.10;;
76167;SDS011;64927;48.214;16.378;2023-09-30T11:03:43;6.80;;;2.33;;
76167;SDS011;64927;48.214;16.378;2023-09-30T11:06:15;10.02;;;2.65;;
76167;SDS011;64927;48.214;16.378;2023-09-30T11:09:00;7.80;;;2.42;;
76167;SDS011;64927;48.214;16.378;2023-09-30T11:11:37;7.07;;;2.53;;
76167;SDS011;64927;48.214;16.378;2023-09-30T11:14:26;5.72;;;2.58;;
76167;SDS011;64927;48.214;16.378;2023-09-30T11:16:54;6.32;;;2.88;;
76167;SDS011;64927;48.214;16.378;2023-09-30T11:19:24;5.88;;;2.55;;
76167;SDS011;64927;48.214;16.378;2023-09-30T11:21:52;6.90;;;2.63;;
76167;SDS011;64927;48.214;16.378;2023-09-30T11:24:20;7.13;;;2.40;;
76167;SDS011;64927;48.214;16.378;2023-09-30T11:26:46;8.50;;;2.78;;
76167;SDS011;64927;48.214;16.378;2023-09-30T11:29:13;5.32;;;2.10;;
76167;SDS011;64927;48.214;16.378;2023-09-30T11:31:44;7.53;;;2.78;;
76167;SDS011;64927;48.214;16.378;2023-09-30T11:34:15;6.47;;;2.40;;
76167;SDS011;64927;48.214;16.378;2023-09-30T11:36:47;5.55;;;2.28;;
76167;SDS011;64927;48.214;16.378;2023-09-30T11:39:24;7.22;;;2.50;;
76167;SDS011;64927;48.214;16.378;2023-09-30T11:41:51;7.47;;;2.22;;
76167;SDS011;64927;48.214;16.378;2023-09-30T11:44:17;6.75;;;2.50;;
76167;SDS011;64927;48.214;16.378;2023-09-30T11:46:53;8.10;;;2.22;;
76167;SDS011;64927;48.214;16.378;2023-09-30T11:51:56;6.65;;;2.05;;
76167;SDS011;64927;48.214;16.378;2023-09-30T11:54:29;3.97;;;2.30;;
76167;SDS011;64927;48.214;16.378;2023-09-30T11:56:56;5.40;;;2.30;;
76167;SDS011;64927;48.214;16.378;2023-09-30T11:59:23;5.35;;;2.08;;
76167;SDS011;64927;48.214;16.378;2023-09-30T12:01:54;9.18;;;2.25;;
76167;SDS011;64927;48.214;16.378;2023-09-30T12:04:23;4.60;;;2.15;;
76167;SDS011;64927;48.214;16.378;2023-09-30T12:06:49;5.25;;;1.90;;
76167;SDS011;64927;48.214;16.378;2023-09-30T12:09:15;8.25;;;2.58;;
76167;SDS011;64927;48.214;16.378;2023-09-30T12:11:46;5.63;;;2.30;;
76167;SDS011;64927;48.214;16.378;2023-09-30T12:14:13;9.20;;;2.42;;
76167;SDS011;64927;48.214;16.378;2023-09-30T12:16:43;6.60;;;2.47;;
76167;SDS011;64927;48.214;16.378;2023-09-30T12:19:15;6.60;;;2.78;;
76167;SDS011;64927;48.214;16.378;2023-09-30T12:21:43;7.45;;;2.83;;
76167;SDS011;64927;48.214;16.378;2023-09-30T12:24:12;5.40;;;1.90;;
76167;SDS011;64927;48.214;16.378;2023-09-30T12:26:44;4.45;;;2.25;;
76167;SDS011;64927;48.214;16.378;2023-09-30T12:29:17;5.20;;;2.00;;
76167;SDS011;64927;48.214;16.378;2023-09-30T12:31:47;3.75;;;1.85;;
76167;SDS011;64927;48.214;16.378;2023-09-30T12:34:13;6.05;;;2.85;;
76167;SDS011;64927;48.214;16.378;2023-09-30T12:36:40;6.60;;;2.75;;
76167;SDS011;64927;48.214;16.378;2023-09-30T12:39:06;5.53;;;2.35;;
76167;SDS011;64927;48.214;16.378;2023-09-30T12:41:42;7.18;;;2.45;;
76167;SDS011;64927;48.214;16.378;2023-09-30T12:44:11;5.40;;;1.80;;
76167;SDS011;64927;48.214;16.378;2023-09-30T12:46:36;8.38;;;2.58;;
76167;SDS011;64927;48.214;16.378;2023-09-30T12:49:04;5.65;;;2.40;;
76167;SDS011;64927;48.214;16.378;2023-09-30T12:51:30;7.35;;;2.20;;
76167;SDS011;64927;48.214;16.378;2023-09-30T12:53:56;6.18;;;1.73;;
76167;SDS011;64927;48.214;16.378;2023-09-30T12:56:23;6.35;;;2.35;;
76167;SDS011;64927;48.214;16.378;2023-09-30T12:58:49;5.03;;;1.83;;
76167;SDS011;64927;48.214;16.378;2023-09-30T13:01:14;6.25;;;2.58;;
76167;SDS011;64927;48.214;16.378;2023-09-30T13:03:43;5.15;;;2.03;;
76167;SDS011;64927;48.214;16.378;2023-09-30T13:06:11;5.10;;;2.10;;
76167;SDS011;64927;48.214;16.378;2023-09-30T13:08:37;5.22;;;2.40;;
76167;SDS011;64927;48.214;16.378;2023-09-30T13:11:07;8.77;;;2.25;;
76167;SDS011;64927;48.214;16.378;2023-09-30T13:13:33;7.40;;;1.90;;
76167;SDS011;64927;48.214;16.378;2023-09-30T13:16:01;6.10;;;2.70;;
76167;SDS011;64927;48.214;16.378;2023-09-30T13:18:27;9.40;;;2.35;;
76167;SDS011;64927;48.214;16.378;2023-09-30T13:20:53;9.60;;;2.67;;
76167;SDS011;64927;48.214;16.378;2023-09-30T13:23:19;3.88;;;1.45;;
76167;SDS011;64927;48.214;16.378;2023-09-30T13:25:45;7.63;;;2.67;;
76167;SDS011;64927;48.214;16.378;2023-09-30T13:28:12;6.85;;;2.25;;
76167;SDS011;64927;48.214;16.378;2023-09-30T13:30:40;7.05;;;2.75;;
76167;SDS011;64927;48.214;16.378;2023-09-30T13:33:06;4.70;;;1.73;;
76167;SDS011;64927;48.214;16.378;2023-09-30T13:35:31;5.07;;;2.08;;
76167;SDS011;64927;48.214;16.378;2023-09-30T13:37:57;8.27;;;2.90;;
76167;SDS011;64927;48.214;16.378;2023-09-30T13:40:23;5.32;;;2.42;;
76167;SDS011;64927;48.214;16.378;2023-09-30T13:42:48;6.40;;;2.40;;
76167;SDS011;64927;48.214;16.378;2023-09-30T13:45:17;8.07;;;2.78;;
76167;SDS011;64927;48.214;16.378;2023-09-30T13:47:43;8.25;;;2.65;;
76167;SDS011;64927;48.214;16.378;2023-09-30T13:50:09;7.07;;;2.53;;
76167;SDS011;64927;48.214;16.378;2023-09-30T13:52:35;7.90;;;3.00;;
76167;SDS011;64927;48.214;16.378;2023-09-30T13:55:01;10.10;;;2.72;;
76167;SDS011;64927;48.214;16.378;2023-09-30T13:57:33;8.15;;;2.70;;
76167;SDS011;64927;48.214;16.378;2023-09-30T14:00:00;5.72;;;2.45;;
76167;SDS011;64927;48.214;16.378;2023-09-30T14:02:26;8.23;;;3.45;;
76167;SDS011;64927;48.214;16.378;2023-09-30T14:04:52;6.88;;;2.78;;
76167;SDS011;64927;48.214;16.378;2023-09-30T14:07:19;5.72;;;2.75;;
76167;SDS011;64927;48.214;16.378;2023-09-30T14:09:45;9.90;;;2.92;;
76167;SDS011;64927;48.214;16.378;2023-09-30T14:12:11;6.80;;;2.53;;
76167;SDS011;64927;48.214;16.378;2023-09-30T14:14:37;5.82;;;2.40;;
76167;SDS011;64927;48.214;16.378;2023-09-30T14:17:05;10.57;;;3.30;;
76167;SDS011;64927;48.214;16.378;2023-09-30T14:19:35;7.15;;;2.33;;
76167;SDS011;64927;48.214;16.378;2023-09-30T14:22:02;6.25;;;2.90;;
76167;SDS011;64927;48.214;16.378;2023-09-30T14:24:30;8.43;;;3.13;;
76167;SDS011;64927;48.214;16.378;2023-09-30T14:27:03;9.50;;;3.47;;
76167;SDS011;64927;48.214;16.378;2023-09-30T14:29:32;11.95;;;2.88;;
76167;SDS011;64927;48.214;16.378;2023-09-30T14:31:58;4.95;;;2.22;;
76167;SDS011;64927;48.214;16.378;2023-09-30T14:34:24;11.80;;;3.38;;
76167;SDS011;64927;48.214;16.378;2023-09-30T14:36:50;6.05;;;3.10;;
76167;SDS011;64927;48.214;16.378;2023-09-30T14:39:16;8.13;;;2.50;;
76167;SDS011;64927;48.214;16.378;2023-09-30T14:41:43;8.77;;;3.15;;
76167;SDS011;64927;48.214;16.378;2023-09-30T14:44:08;6.35;;;2.45;;
76167;SDS011;64927;48.214;16.378;2023-09-30T14:46:37;6.55;;;2.88;;
76167;SDS011;64927;48.214;16.378;2023-09-30T14:49:03;7.47;;;2.60;;
76167;SDS011;64927;48.214;16.378;2023-09-30T14:51:33;6.75;;;2.20;;
76167;SDS011;64927;48.214;16.378;2023-09-30T14:54:03;5.13;;;2.67;;
76167;SDS011;64927;48.214;16.378;2023-09-30T14:56:29;8.27;;;2.42;;
76167;SDS011;64927;48.214;16.378;2023-09-30T14:58:57;4.82;;;2.15;;
76167;SDS011;64927;48.214;16.378;2023-09-30T15:01:23;4.30;;;1.80;;